Time;durP1;ratioP1;P1;durP2;ratioP2;P2;SDS_P1;SDS_P2;PMS_P1;PMS_P2;Temp;Humidity;BMP_temperature;BMP_pressure;BME280_temperature;BME280_humidity;BME280_pressure;Samples;Min_cycle;Max_cycle;Signal;HPM_P1;HPM_P2
2022/12/22 03:25:51;;;;;;;2.03;0.90;;;;;;;-145.69;100.00;52618.66;5081815;28;20202;-81
2022/12/22 03:28:19;;;;;;;1.23;0.80;;;;;;;-145.69;100.00;52654.31;5077826;28;20282;-81
2022/12/22 03:30:45;;;;;;;0.73;0.60;;;;;;;-145.69;100.00;52614.72;5075480;28;20685;-82
2022/12/22 03:33:13;;;;;;;3.37;0.80;;;;;;;-145.69;100.00;52616.69;5075941;28;20654;-81
2022/12/22 03:35:40;;;;;;;0.67;0.67;;;;;;;-145.69;100.00;52622.63;5076000;28;20214;-81
2022/12/22 03:38:06;;;;;;;1.87;0.60;;;;;;;-145.69;100.00;52624.59;5035864;28;20219;-82
2022/12/22 03:40:33;;;;;;;2.63;0.63;;;;;;;-145.69;100.00;52612.72;5036210;28;20203;-82
2022/12/22 03:48:41;;;;;;;1.20;0.60;;;;;;;-145.69;100.00;52588.97;5027786;28;20219;-82
2022/12/22 03:51:07;;;;;;;2.53;0.80;;;;;;;-145.69;100.00;52628.56;5036283;28;20200;-82
2022/12/22 03:53:34;;;;;;;3.53;0.80;;;;;;;-145.69;100.00;52604.81;5035627;28;20212;-83
2022/12/22 03:56:02;;;;;;;1.10;0.60;;;;;;;-145.69;100.00;52618.66;5035465;28;20213;-83
2022/12/22 03:58:29;;;;;;;1.27;0.70;;;;;;;-145.69;100.00;52660.25;5035181;28;20211;-83
2022/12/22 04:01:04;;;;;;;0.97;0.67;;;;;;;-145.69;100.00;52638.47;5035549;28;20207;-82
2022/12/22 04:03:31;;;;;;;1.17;0.70;;;;;;;-145.69;100.00;52616.69;5036016;28;20207;-82
2022/12/22 04:05:59;;;;;;;3.37;0.90;;;;;;;-145.69;100.00;52583.00;5036680;28;20207;-83
2022/12/22 04:08:25;;;;;;;3.00;0.70;;;;;;;-145.69;100.00;52606.78;5035788;28;20721;-83
2022/12/22 04:13:41;;;;;;;3.10;1.60;;;;;;;-145.69;100.00;52590.94;4978043;28;20692;-83
2022/12/22 04:16:07;;;;;;;8.50;2.43;;;;;;;-145.69;100.00;52632.53;5032729;28;20196;-83
2022/12/22 04:18:34;;;;;;;4.83;1.53;;;;;;;-145.69;100.00;52606.78;5034537;28;20188;-83
2022/12/22 04:21:02;;;;;;;2.43;1.20;;;;;;;-145.69;100.00;52634.50;5035568;28;20211;-83
2022/12/22 04:23:28;;;;;;;8.00;0.97;;;;;;;-145.69;100.00;52618.66;5036765;28;20211;-83
2022/12/22 04:25:55;;;;;;;6.70;1.07;;;;;;;-145.69;100.00;52626.59;5038024;28;20227;-83
2022/12/22 04:28:21;;;;;;;5.73;1.10;;;;;;;-145.69;100.00;52610.75;5039123;28;20228;-83
2022/12/22 04:30:49;;;;;;;7.50;1.10;;;;;;;-145.69;100.00;52618.66;5039114;28;20442;-82
2022/12/22 04:33:16;;;;;;;10.80;1.23;;;;;;;-145.69;100.00;52646.41;5039208;28;20686;-82
2022/12/22 04:35:42;;;;;;;4.27;1.20;;;;;;;-145.69;100.00;52612.72;5039997;28;20196;-82
2022/12/22 04:38:10;;;;;;;9.13;1.30;;;;;;;-145.69;100.00;52624.59;5078122;28;20202;-82
2022/12/22 04:40:37;;;;;;;6.57;0.97;;;;;;;-145.69;100.00;52598.84;5078710;28;20676;-82
2022/12/22 04:43:04;;;;;;;3.13;1.30;;;;;;;-145.69;100.00;52630.53;5077861;28;20199;-82
2022/12/22 04:45:30;;;;;;;2.47;1.10;;;;;;;-145.69;100.00;52618.66;5077068;28;20256;-82
2022/12/22 04:47:57;;;;;;;7.57;1.13;;;;;;;-145.69;100.00;52606.78;5063735;28;20586;-83
2022/12/22 04:50:24;;;;;;;9.27;1.13;;;;;;;-145.69;100.00;52622.63;5076299;28;20546;-83
2022/12/22 04:52:50;;;;;;;5.50;1.30;;;;;;;-145.69;100.00;52626.59;5077045;28;20207;-81
2022/12/22 04:55:18;;;;;;;7.43;1.27;;;;;;;-145.69;100.00;52604.81;5075491;28;20290;-82
2022/12/22 04:57:45;;;;;;;8.20;1.23;;;;;;;-145.69;100.00;52618.66;5077381;28;20191;-83
2022/12/22 05:00:12;;;;;;;10.43;1.40;;;;;;;-145.69;100.00;52608.75;5076184;28;20195;-83
2022/12/22 05:02:39;;;;;;;4.70;1.43;;;;;;;-145.69;100.00;52602.81;5077799;28;20193;-83
2022/12/22 05:05:06;;;;;;;4.47;1.30;;;;;;;-145.69;100.00;52588.97;5076464;28;20669;-83
2022/12/22 05:07:32;;;;;;;8.00;1.20;;;;;;;-145.69;100.00;52634.50;5076330;28;20227;-83
2022/12/22 05:09:59;;;;;;;9.33;1.67;;;;;;;-145.69;100.00;52604.81;5076652;28;20194;-82
2022/12/22 05:15:11;;;;;;;11.67;1.50;;;;;;;-145.69;100.00;52600.84;5077411;28;20275;-83
2022/12/22 05:17:37;;;;;;;6.20;1.50;;;;;;;-145.69;100.00;52626.59;5076307;28;20199;-84
2022/12/22 05:20:04;;;;;;;4.47;1.27;;;;;;;-145.69;100.00;52606.78;5076011;28;20199;-83
2022/12/22 05:22:31;;;;;;;3.33;1.03;;;;;;;-145.69;100.00;52602.81;5076798;28;20285;-82
2022/12/22 05:24:57;;;;;;;7.37;1.17;;;;;;;-145.69;100.00;52606.78;5074574;28;20199;-83
2022/12/22 05:27:24;;;;;;;6.77;1.40;;;;;;;-145.69;100.00;52634.50;5075698;28;20252;-82
2022/12/22 05:29:51;;;;;;;7.43;1.20;;;;;;;-145.69;100.00;52581.03;5076429;28;20206;-83
2022/12/22 05:32:18;;;;;;;8.90;1.10;;;;;;;-145.69;100.00;52616.69;5076133;28;20556;-82
2022/12/22 05:34:44;;;;;;;9.63;2.10;;;;;;;-145.69;100.00;52622.63;5077958;28;20207;-82
2022/12/22 05:37:11;;;;;;;7.80;1.57;;;;;;;-145.69;100.00;52586.97;5076308;28;20242;-83
2022/12/22 05:39:37;;;;;;;7.53;1.40;;;;;;;-145.69;100.00;52586.97;5075691;28;20667;-82
2022/12/22 05:42:04;;;;;;;7.27;1.80;;;;;;;-145.69;100.00;52586.97;5075752;28;20661;-83
2022/12/22 05:44:30;;;;;;;6.30;1.50;;;;;;;-145.69;100.00;52622.63;5075637;28;20206;-84
2022/12/22 05:46:58;;;;;;;9.43;1.40;;;;;;;-145.69;100.00;52610.75;5075501;28;20202;-82
2022/12/22 05:49:25;;;;;;;5.90;1.30;;;;;;;-145.69;100.00;52610.75;5077617;28;20227;-82
2022/12/22 05:51:53;;;;;;;10.90;2.10;;;;;;;-145.69;100.00;52636.50;5076375;28;20225;-82
2022/12/22 05:54:19;;;;;;;14.13;2.20;;;;;;;-145.69;100.00;52606.78;5073223;28;20195;-81
2022/12/22 05:56:46;;;;;;;14.83;2.70;;;;;;;-145.69;100.00;52608.75;5072833;28;20198;-80
2022/12/22 05:59:12;;;;;;;10.60;2.23;;;;;;;-145.69;100.00;52622.63;5073012;28;20677;-81
2022/12/22 06:01:39;;;;;;;5.33;1.40;;;;;;;-145.69;100.00;52581.03;5073297;28;20207;-81
2022/12/22 06:04:06;;;;;;;13.00;2.23;;;;;;;-145.69;100.00;52622.63;5074156;28;20199;-82
2022/12/22 06:06:33;;;;;;;8.57;1.97;;;;;;;-145.69;100.00;52596.88;5072924;28;20538;-81
2022/12/22 06:08:59;;;;;;;13.60;2.03;;;;;;;-145.69;100.00;52614.72;5072635;28;20223;-80
2022/12/22 06:11:26;;;;;;;8.87;1.80;;;;;;;-145.69;100.00;52583.00;5076030;28;20191;-82
2022/12/22 06:13:52;;;;;;;11.03;1.70;;;;;;;-145.69;100.00;52610.75;5079160;28;20201;-82
2022/12/22 06:16:19;;;;;;;6.93;1.43;;;;;;;-145.69;100.00;52598.84;5079482;28;20214;-82
2022/12/22 06:18:45;;;;;;;5.23;1.60;;;;;;;-145.69;100.00;52608.75;5078110;28;20620;-82
2022/12/22 06:21:13;;;;;;;13.17;1.30;;;;;;;-145.69;100.00;52606.78;5079329;28;20226;-83
2022/12/22 06:23:39;;;;;;;10.47;1.77;;;;;;;-145.69;100.00;52622.63;5080514;28;20202;-83
2022/12/22 06:26:06;;;;;;;5.97;1.37;;;;;;;-145.69;100.00;52606.78;5078986;28;20206;-82
2022/12/22 06:28:32;;;;;;;8.23;1.67;;;;;;;-145.69;100.00;52614.72;5079733;28;20234;-81
2022/12/22 06:30:59;;;;;;;8.70;1.73;;;;;;;-145.69;100.00;52596.88;5079866;28;20225;-82
2022/12/22 06:33:25;;;;;;;6.97;1.57;;;;;;;-145.69;100.00;52622.63;5080473;28;20832;-82
2022/12/22 06:35:52;;;;;;;7.50;1.63;;;;;;;-145.69;100.00;52618.66;5078502;28;20260;-83
2022/12/22 06:38:20;;;;;;;9.53;1.50;;;;;;;-145.69;100.00;52594.91;5079611;28;20194;-82
2022/12/22 06:40:47;;;;;;;8.47;1.57;;;;;;;-145.69;100.00;52614.72;5077501;28;20198;-82
2022/12/22 06:43:12;;;;;;;7.33;1.50;;;;;;;-145.69;100.00;52616.69;5077852;28;20202;-82
2022/12/22 06:45:40;;;;;;;11.07;1.73;;;;;;;-145.69;100.00;52616.69;5077122;28;20194;-81
2022/12/22 06:48:08;;;;;;;10.27;1.40;;;;;;;-145.69;100.00;52614.72;5078064;28;20708;-82
2022/12/22 06:50:35;;;;;;;8.57;1.60;;;;;;;-145.69;100.00;52618.66;5075025;28;20222;-82
2022/12/22 06:53:03;;;;;;;10.23;1.80;;;;;;;-145.69;100.00;52624.59;5078729;28;20203;-82
2022/12/22 06:55:31;;;;;;;9.43;1.63;;;;;;;-145.69;100.00;52606.78;5079158;28;20669;-83
2022/12/22 06:57:58;;;;;;;9.20;2.03;;;;;;;-145.69;100.00;52590.94;5078593;28;20199;-81
2022/12/22 07:00:24;;;;;;;8.50;1.53;;;;;;;-145.69;100.00;52616.69;5076360;28;20199;-83
2022/12/22 07:02:51;;;;;;;3.70;1.50;;;;;;;-145.69;100.00;52575.09;5078053;28;20202;-82
2022/12/22 07:05:17;;;;;;;7.33;1.77;;;;;;;-145.69;100.00;52581.03;5079900;28;20203;-83
2022/12/22 07:07:44;;;;;;;5.87;1.20;;;;;;;-145.69;100.00;52618.66;5080972;28;20217;-83
2022/12/22 07:10:11;;;;;;;8.97;1.80;;;;;;;-145.69;100.00;52610.75;5078364;28;20202;-82
2022/12/22 07:12:39;;;;;;;7.67;1.33;;;;;;;-145.69;100.00;52638.47;5076406;28;20203;-82
2022/12/22 07:15:06;;;;;;;8.77;1.30;;;;;;;-145.69;100.00;52581.03;5076359;28;20226;-82
2022/12/22 07:17:33;;;;;;;2.63;1.03;;;;;;;-145.69;100.00;52598.84;5075322;28;20190;-81
2022/12/22 07:19:59;;;;;;;17.80;1.60;;;;;;;-145.69;100.00;52620.66;5076080;28;20215;-83
2022/12/22 07:22:26;;;;;;;5.63;1.43;;;;;;;-145.69;100.00;52590.94;5078263;28;20202;-83
2022/12/22 07:24:53;;;;;;;11.73;1.80;;;;;;;-145.69;100.00;52602.81;5077468;28;20205;-83
2022/12/22 07:27:20;;;;;;;9.30;1.60;;;;;;;-145.69;100.00;52646.41;5076894;28;20207;-83
2022/12/22 07:29:47;;;;;;;18.57;1.87;;;;;;;-145.69;100.00;52616.69;5077911;28;20605;-84
2022/12/22 07:32:14;;;;;;;8.63;1.63;;;;;;;-145.69;100.00;52636.50;5078015;28;20568;-83
2022/12/22 07:34:40;;;;;;;14.93;2.00;;;;;;;-145.69;100.00;52610.75;5077810;28;20207;-83
2022/12/22 07:37:07;;;;;;;9.53;1.83;;;;;;;-145.69;100.00;52636.50;5078010;28;20227;-83
2022/12/22 07:39:33;;;;;;;12.50;1.77;;;;;;;-145.69;100.00;52583.00;5077882;28;20197;-83
2022/12/22 07:44:44;;;;;;;51.60;12.10;;;;;;;-145.69;100.00;52620.66;5076179;28;20576;-83
2022/12/22 07:47:12;;;;;;;13.57;3.37;;;;;;;-145.69;100.00;52575.09;5076279;28;20206;-83
2022/12/22 07:52:22;;;;;;;13.40;3.57;;;;;;;-145.69;100.00;52598.84;5076419;28;20289;-83
2022/12/22 07:54:48;;;;;;;9.10;1.90;;;;;;;-145.69;100.00;52646.41;5078849;28;20199;-83
2022/12/22 07:57:15;;;;;;;15.53;2.60;;;;;;;-145.69;100.00;52592.91;5079638;28;20210;-83
2022/12/22 07:59:41;;;;;;;13.47;2.40;;;;;;;-145.69;100.00;52622.63;5078851;28;20209;-82
2022/12/22 08:02:12;;;;;;;13.77;3.33;;;;;;;-145.69;100.00;52600.84;5079834;28;20218;-83
2022/12/22 08:04:38;;;;;;;9.77;1.90;;;;;;;-145.69;100.00;52626.59;5077085;28;20260;-83
2022/12/22 08:07:05;;;;;;;10.43;1.80;;;;;;;-145.69;100.00;52581.03;5077416;28;20230;-83
2022/12/22 08:09:31;;;;;;;12.90;1.43;;;;;;;-145.69;100.00;52592.91;5075980;28;20231;-83
2022/12/22 08:11:58;;;;;;;7.90;1.67;;;;;;;-145.69;100.00;52586.97;5076975;28;20215;-83
2022/12/22 08:14:24;;;;;;;10.17;1.80;;;;;;;-145.69;100.00;52610.75;5077725;28;20206;-83
2022/12/22 08:16:50;;;;;;;10.53;1.80;;;;;;;-145.69;100.00;52616.69;5076001;28;20238;-83
2022/12/22 08:19:18;;;;;;;13.82;1.95;;;;;;;-145.69;100.00;52616.69;5078005;28;20445;-83
2022/12/22 08:21:45;;;;;;;14.27;2.03;;;;;;;-145.69;100.00;52588.97;5078938;28;20205;-84
2022/12/22 08:24:11;;;;;;;11.07;1.90;;;;;;;-145.69;100.00;52598.84;5078124;28;20202;-84
2022/12/22 08:26:42;;;;;;;13.47;1.93;;;;;;;-145.69;100.00;52571.13;5079417;28;20286;-83
2022/12/22 08:29:14;;;;;;;5.80;1.37;;;;;;;-145.69;100.00;52638.47;5077355;28;20226;-83
2022/12/22 08:31:41;;;;;;;10.00;1.40;;;;;;;-145.69;100.00;52592.91;5075309;28;20210;-83
2022/12/22 08:34:10;;;;;;;8.13;1.63;;;;;;;-145.69;100.00;52598.84;5075773;28;20229;-82
2022/12/22 08:36:44;;;;;;;6.17;1.53;;;;;;;-145.69;100.00;52646.41;5073775;28;20230;-83
2022/12/22 08:39:11;;;;;;;12.40;1.90;;;;;;;-145.69;100.00;52592.91;5070307;28;20206;-82
2022/12/22 08:41:49;;;;;;;13.13;1.93;;;;;;;-145.69;100.00;52636.50;5073690;28;20198;-83
2022/12/22 08:44:16;;;;;;;9.77;1.70;;;;;;;-145.69;100.00;52598.84;5073767;28;20669;-82
2022/12/22 08:46:43;;;;;;;20.67;2.50;;;;;;;-145.69;100.00;52590.94;5073867;28;20207;-82
2022/12/22 08:49:09;;;;;;;17.70;2.17;;;;;;;-145.69;100.00;52610.75;5073754;28;20233;-81
2022/12/22 08:51:36;;;;;;;12.63;1.70;;;;;;;-145.69;100.00;52620.66;5072980;28;20202;-82
2022/12/22 08:54:04;;;;;;;12.47;2.00;;;;;;;-145.69;100.00;52654.31;5071232;28;20199;-83
2022/12/22 08:56:30;;;;;;;7.40;1.97;;;;;;;-145.69;100.00;52612.72;5073601;28;20199;-84
2022/12/22 08:59:03;;;;;;;12.00;2.20;;;;;;;-145.69;100.00;52563.22;5073605;28;20229;-83
2022/12/22 09:01:30;;;;;;;12.23;2.25;;;;;;;-145.69;100.00;52614.72;5071957;28;20525;-82
2022/12/22 09:03:57;;;;;;;10.23;1.67;;;;;;;-145.69;100.00;52596.88;5073508;28;20199;-82
2022/12/22 09:06:26;;;;;;;6.50;1.47;;;;;;;-145.69;100.00;52616.69;5073406;28;20538;-83
2022/12/22 09:08:54;;;;;;;14.17;1.93;;;;;;;-145.69;100.00;52618.66;5073413;28;20230;-82
2022/12/22 09:11:22;;;;;;;7.83;1.77;;;;;;;-145.69;100.00;52614.72;5073315;28;20198;-84
2022/12/22 09:13:51;;;;;;;6.73;1.40;;;;;;;-145.69;100.00;52594.91;5073199;28;20688;-82
2022/12/22 09:16:17;;;;;;;11.47;2.00;;;;;;;-145.69;100.00;52608.75;5073470;28;20205;-81
2022/12/22 09:18:44;;;;;;;6.30;1.50;;;;;;;-145.69;100.00;52600.84;5073213;28;20207;-83
2022/12/22 09:21:10;;;;;;;11.23;1.80;;;;;;;-145.69;100.00;52622.63;5072991;28;20222;-83
2022/12/22 09:23:37;;;;;;;15.40;2.27;;;;;;;-145.69;100.00;52588.97;5073156;28;20214;-83
2022/12/22 09:26:07;;;;;;;7.43;1.73;;;;;;;-145.69;100.00;52614.72;5073113;28;20225;-84
2022/12/22 09:28:35;;;;;;;13.07;2.27;;;;;;;-145.69;100.00;52592.91;5073538;28;20665;-84
2022/12/22 09:31:02;;;;;;;7.13;1.73;;;;;;;-145.69;100.00;52596.88;5072775;28;20600;-80
2022/12/22 09:33:28;;;;;;;9.67;1.40;;;;;;;-145.69;100.00;52612.72;5073040;28;20206;-81
2022/12/22 09:35:55;;;;;;;9.10;1.53;;;;;;;-145.69;100.00;52592.91;5072807;28;20203;-81
2022/12/22 09:38:22;;;;;;;9.60;1.70;;;;;;;-145.69;100.00;52614.72;5072342;28;20642;-80
2022/12/22 09:40:48;;;;;;;11.73;1.50;;;;;;;-145.69;100.00;52616.69;5073071;28;20206;-82
2022/12/22 09:43:17;;;;;;;13.57;2.10;;;;;;;-145.69;100.00;52626.59;5072823;28;20680;-81
2022/12/22 09:45:45;;;;;;;10.73;1.60;;;;;;;-145.69;100.00;52596.88;5072589;28;20543;-81
2022/12/22 09:48:14;;;;;;;6.43;1.63;;;;;;;-145.69;100.00;52586.97;5072893;28;20203;-82
2022/12/22 09:50:41;;;;;;;9.40;1.70;;;;;;;-145.69;100.00;52596.88;5072626;28;20222;-81
2022/12/22 09:53:16;;;;;;;7.23;1.67;;;;;;;-145.69;100.00;52626.59;5072647;28;20680;-81
2022/12/22 09:55:46;;;;;;;10.03;1.83;;;;;;;-145.69;100.00;52579.06;5072816;28;20198;-81
2022/12/22 09:58:25;;;;;;;9.57;1.93;;;;;;;-145.69;100.00;52642.44;5072848;28;20293;-81
2022/12/22 10:00:59;;;;;;;19.47;2.20;;;;;;;-145.69;100.00;52598.84;5069673;28;20648;-79
2022/12/22 10:03:36;;;;;;;7.57;1.63;;;;;;;-145.69;100.00;52594.91;5072461;28;20680;-81
2022/12/22 10:06:10;;;;;;;15.30;1.80;;;;;;;-145.69;100.00;52614.72;5072777;28;20199;-81
2022/12/22 10:08:39;;;;;;;8.50;1.90;;;;;;;-145.69;100.00;52586.97;5072691;28;20204;-78
2022/12/22 10:11:07;;;;;;;14.57;1.87;;;;;;;-145.69;100.00;52604.81;5072642;28;20209;-81
2022/12/22 10:13:33;;;;;;;9.47;2.00;;;;;;;-145.69;100.00;52638.47;5072873;28;20198;-82
2022/12/22 10:16:01;;;;;;;13.40;1.87;;;;;;;-145.69;100.00;52571.13;5072437;28;20225;-81
2022/12/22 10:18:29;;;;;;;6.60;1.57;;;;;;;-145.69;100.00;52602.81;5072457;28;20205;-81
2022/12/22 10:21:08;;;;;;;12.20;1.83;;;;;;;-145.69;100.00;52590.94;5072408;28;20222;-81
2022/12/22 10:23:38;;;;;;;9.50;1.80;;;;;;;-145.69;100.00;52602.81;5072627;28;20198;-82
2022/12/22 10:26:10;;;;;;;11.77;1.90;;;;;;;-145.69;100.00;52590.94;5072472;28;20234;-83
2022/12/22 10:28:40;;;;;;;7.63;1.53;;;;;;;-145.69;100.00;52606.78;5072197;28;20226;-82
2022/12/22 10:31:15;;;;;;;10.10;1.80;;;;;;;-145.69;100.00;52610.75;5072049;28;20198;-82
2022/12/22 10:33:43;;;;;;;7.07;1.60;;;;;;;-145.69;100.00;52622.63;5062678;28;20190;-83
2022/12/22 10:36:10;;;;;;;15.97;1.80;;;;;;;-145.69;100.00;52588.97;5072205;28;20258;-82
2022/12/22 10:38:43;;;;;;;7.10;1.20;;;;;;;-145.69;100.00;52604.81;5072443;28;20199;-81
2022/12/22 10:41:15;;;;;;;6.77;1.60;;;;;;;-145.69;100.00;52594.91;5072213;28;20560;-83
2022/12/22 10:43:48;;;;;;;6.07;1.50;;;;;;;-145.69;100.00;52571.13;5072351;28;20208;-81
2022/12/22 10:46:17;;;;;;;11.03;1.90;;;;;;;-145.69;100.00;52586.97;5072262;28;20202;-82
2022/12/22 10:48:43;;;;;;;7.10;1.30;;;;;;;-145.69;100.00;52620.66;5072234;28;20207;-82
2022/12/22 10:51:13;;;;;;;5.93;1.23;;;;;;;-145.69;100.00;52600.84;5071964;28;20195;-81
2022/12/22 10:53:47;;;;;;;11.00;1.90;;;;;;;-145.69;100.00;52586.97;5072081;28;20206;-83
2022/12/22 10:56:23;;;;;;;9.43;1.50;;;;;;;-145.69;100.00;52563.22;5072544;28;20206;-83
2022/12/22 10:58:52;;;;;;;8.60;1.90;;;;;;;-145.69;100.00;52590.94;5076047;28;20198;-82
2022/12/22 11:01:29;;;;;;;7.53;1.50;;;;;;;-145.69;100.00;52583.00;5073780;28;20206;-82
2022/12/22 11:03:56;;;;;;;16.37;2.60;;;;;;;-145.69;100.00;52618.66;5066523;28;20202;-85
2022/12/22 11:06:23;;;;;;;9.90;1.90;;;;;;;-145.69;100.00;52616.69;5075748;28;20199;-83
2022/12/22 11:08:50;;;;;;;6.87;1.27;;;;;;;-145.69;100.00;52585.00;5075440;28;20653;-84
2022/12/22 11:11:32;;;;;;;10.27;1.53;;;;;;;-145.69;100.00;52606.78;5075968;28;20199;-83
2022/12/22 11:14:09;;;;;;;11.43;1.87;;;;;;;-145.69;100.00;52646.41;5075833;28;20207;-83
2022/12/22 11:16:46;;;;;;;11.20;1.57;;;;;;;-145.69;100.00;52598.84;5075524;28;20198;-83
2022/12/22 11:19:32;;;;;;;5.63;1.13;;;;;;;-145.69;100.00;52583.00;5075707;28;20205;-84
2022/12/22 11:22:03;;;;;;;5.90;1.20;;;;;;;-145.69;100.00;52563.22;5076414;28;20198;-84
2022/12/22 11:24:38;;;;;;;9.13;1.77;;;;;;;-145.69;100.00;52590.94;5076929;28;20210;-82
2022/12/22 11:27:21;;;;;;;13.90;1.73;;;;;;;-145.69;100.00;52602.81;5078011;28;20693;-83
2022/12/22 11:30:08;;;;;;;7.97;1.70;;;;;;;-145.69;100.00;52583.00;5077472;28;20218;-84
2022/12/22 11:33:02;;;;;;;9.87;1.70;;;;;;;-145.69;100.00;52602.81;5075618;28;20202;-83
2022/12/22 11:35:42;;;;;;;7.73;1.70;;;;;;;-145.69;100.00;52577.06;5074360;28;20210;-82
2022/12/22 11:38:20;;;;;;;11.47;1.63;;;;;;;-145.69;100.00;52598.84;5075368;28;20206;-83
2022/12/22 11:40:49;;;;;;;6.67;1.57;;;;;;;-145.69;100.00;52586.97;5075721;28;20202;-82
2022/12/22 11:43:23;;;;;;;12.30;1.67;;;;;;;-145.69;100.00;52602.81;5075493;28;20202;-83
2022/12/22 11:46:13;;;;;;;13.40;1.90;;;;;;;-145.69;100.00;52571.13;5075752;28;20206;-82
2022/12/22 11:49:05;;;;;;;11.30;1.90;;;;;;;-145.69;100.00;52571.13;5075617;28;20199;-83
2022/12/22 11:51:46;;;;;;;12.77;2.27;;;;;;;-145.69;100.00;52614.72;5075140;28;20202;-83
2022/12/22 11:54:29;;;;;;;10.17;1.53;;;;;;;-145.69;100.00;52547.38;5075254;28;20199;-82
2022/12/22 11:57:02;;;;;;;7.47;1.50;;;;;;;-145.69;100.00;52616.69;5075123;28;20584;-83
2022/12/22 11:59:37;;;;;;;17.70;2.40;;;;;;;-145.69;100.00;52590.94;5074677;28;20201;-82
2022/12/22 12:02:30;;;;;;;8.03;1.80;;;;;;;-145.69;100.00;52610.75;5074167;28;20194;-85
2022/12/22 12:05:18;;;;;;;18.23;1.80;;;;;;;-145.69;100.00;52563.22;5074805;28;20207;-82
2022/12/22 12:07:57;;;;;;;12.23;1.80;;;;;;;-145.69;100.00;52551.31;5074268;28;20226;-81
2022/12/22 12:10:34;;;;;;;11.80;2.30;;;;;;;-145.69;100.00;52573.13;5074338;28;20230;-80
2022/12/22 12:13:13;;;;;;;16.30;2.13;;;;;;;-145.69;100.00;52579.06;5074567;28;20225;-82
2022/12/22 12:15:46;;;;;;;14.47;2.13;;;;;;;-145.69;100.00;52579.06;5075042;28;20209;-84
2022/12/22 12:18:39;;;;;;;13.93;2.63;;;;;;;-145.69;100.00;52573.13;5075184;28;20194;-83
2022/12/22 12:21:28;;;;;;;12.07;2.00;;;;;;;-145.69;100.00;52553.31;5074334;28;20203;-83
2022/12/22 12:24:12;;;;;;;12.53;2.20;;;;;;;-145.69;100.00;52606.78;5074904;28;20199;-83
2022/12/22 12:26:50;;;;;;;11.43;2.07;;;;;;;-145.69;100.00;52585.00;5075418;28;20204;-84
2022/12/22 12:29:20;;;;;;;13.77;2.00;;;;;;;-145.69;100.00;52563.22;5074387;28;20654;-84
2022/12/22 12:31:55;;;;;;;16.07;2.43;;;;;;;-145.69;100.00;52579.06;5074607;28;20214;-84
2022/12/22 12:34:25;;;;;;;15.27;2.20;;;;;;;-145.69;100.00;52557.28;5055515;28;20195;-83
2022/12/22 12:37:05;;;;;;;15.60;2.83;;;;;;;-145.69;100.00;52577.06;5054887;28;20366;-81
2022/12/22 12:39:41;;;;;;;13.53;2.17;;;;;;;-145.69;100.00;52583.00;5054864;28;20238;-85
2022/12/22 12:42:23;;;;;;;12.35;1.88;;;;;;;-145.69;100.00;52543.41;5054628;28;20195;-83
2022/12/22 12:44:53;;;;;;;14.30;2.60;;;;;;;-145.69;100.00;52563.22;5054780;28;20402;-85
2022/12/22 12:47:26;;;;;;;9.55;1.60;;;;;;;-145.69;100.00;52579.06;5054209;28;20251;-85
2022/12/22 12:50:19;;;;;;;13.27;2.05;;;;;;;-145.69;100.00;52602.81;5054470;28;20223;-86
2022/12/22 12:53:15;;;;;;;16.93;1.90;;;;;;;-145.69;100.00;52567.16;5074343;28;20220;-83
2022/12/22 12:56:09;;;;;;;13.37;1.93;;;;;;;-145.69;100.00;52585.00;5057030;28;20720;-84
2022/12/22 12:58:56;;;;;;;11.67;2.17;;;;;;;-145.69;100.00;52545.38;5054331;28;20210;-84
2022/12/22 13:01:55;;;;;;;11.15;2.33;;;;;;;-145.69;100.00;52590.94;5064236;28;20213;-84
2022/12/22 13:05:14;;;;;;;15.67;3.50;;;;;;;-145.69;100.00;52583.00;5074575;28;20194;-84
2022/12/22 13:08:20;;;;;;;15.90;2.33;;;;;;;-145.69;100.00;52579.06;5074921;28;20336;-84
2022/12/22 13:11:19;;;;;;;11.77;2.17;;;;;;;-145.69;100.00;52547.38;5073907;28;20745;-81
2022/12/22 13:13:53;;;;;;;15.13;2.28;;;;;;;-145.69;100.00;52555.28;5071936;28;20274;-84
2022/12/22 13:16:34;;;;;;;10.82;1.83;;;;;;;-145.69;100.00;52555.28;5054648;28;20200;-83
2022/12/22 13:19:27;;;;;;;13.32;2.05;;;;;;;-145.69;100.00;52586.97;5054232;28;20207;-84
2022/12/22 13:21:56;;;;;;;12.73;2.10;;;;;;;-145.69;100.00;52567.16;5046819;28;20345;-84
2022/12/22 13:24:29;;;;;;;9.80;2.03;;;;;;;-145.69;100.00;52567.16;5074155;28;20186;-83
2022/12/22 13:27:05;;;;;;;18.10;2.65;;;;;;;-145.69;100.00;52555.28;5074457;28;20201;-84
2022/12/22 13:29:41;;;;;;;18.13;2.85;;;;;;;-145.69;100.00;52547.38;5074612;28;20202;-84
2022/12/22 13:32:20;;;;;;;15.63;2.50;;;;;;;-145.69;100.00;52567.16;5074603;28;20195;-83
2022/12/22 13:34:52;;;;;;;15.30;2.20;;;;;;;-145.69;100.00;52549.34;5074742;28;20289;-83
2022/12/22 13:37:21;;;;;;;14.73;2.35;;;;;;;-145.69;100.00;52527.56;5073380;28;20243;-84
2022/12/22 13:40:17;;;;;;;22.02;2.72;;;;;;;-145.69;100.00;52531.53;5074418;28;20202;-83
2022/12/22 13:42:47;;;;;;;20.55;2.90;;;;;;;-145.69;100.00;52571.13;5074537;28;20198;-85
2022/12/22 13:45:27;;;;;;;12.73;2.03;;;;;;;-145.69;100.00;52551.31;5073973;28;20260;-82
2022/12/22 13:47:54;;;;;;;10.90;2.28;;;;;;;-145.69;100.00;52571.13;5073442;28;20221;-83
2022/12/22 13:50:25;;;;;;;15.68;2.75;;;;;;;-145.69;100.00;52539.44;5073236;28;20226;-82
2022/12/22 13:52:53;;;;;;;14.75;2.35;;;;;;;-145.69;100.00;52551.31;5072216;28;20223;-82
2022/12/22 13:55:26;;;;;;;12.07;1.95;;;;;;;-145.69;100.00;52551.31;5073282;28;20211;-82
2022/12/22 13:57:55;;;;;;;16.30;2.00;;;;;;;-145.69;100.00;52579.06;5070645;28;20202;-82
2022/12/22 14:00:24;;;;;;;16.97;2.20;;;;;;;-145.69;100.00;52563.22;5072167;28;20290;-82
2022/12/22 14:02:50;;;;;;;13.43;2.38;;;;;;;-145.69;100.00;52545.38;5072170;28;20657;-81
2022/12/22 14:05:18;;;;;;;13.30;2.37;;;;;;;-145.69;100.00;52583.00;5073331;28;20202;-82
2022/12/22 14:08:02;;;;;;;14.43;2.60;;;;;;;-145.69;100.00;52547.38;5072916;28;20206;-87
2022/12/22 14:10:34;;;;;;;12.53;2.20;;;;;;;-145.69;100.00;52575.09;5074067;28;20222;-84
2022/12/22 14:13:07;;;;;;;17.13;2.77;;;;;;;-145.69;100.00;52583.00;5076422;28;20737;-84
2022/12/22 14:15:34;;;;;;;10.37;2.10;;;;;;;-145.69;100.00;52539.44;5074047;28;20194;-83
2022/12/22 14:18:01;;;;;;;11.97;2.30;;;;;;;-145.69;100.00;52583.00;5072835;28;20704;-82
2022/12/22 14:20:32;;;;;;;15.97;2.70;;;;;;;-145.69;100.00;52585.00;5072343;28;20209;-81
2022/12/22 14:23:05;;;;;;;18.77;2.10;;;;;;;-145.69;100.00;52571.13;5072120;28;20554;-81
2022/12/22 14:25:35;;;;;;;16.60;2.57;;;;;;;-145.69;100.00;52565.19;5052564;28;20207;-82
2022/12/22 14:28:05;;;;;;;13.50;2.10;;;;;;;-145.69;100.00;52573.13;5052390;28;20200;-81
2022/12/22 14:30:35;;;;;;;12.23;2.10;;;;;;;-145.69;100.00;52555.28;5072218;28;20218;-83
2022/12/22 14:33:31;;;;;;;13.60;2.03;;;;;;;-145.69;100.00;52555.28;5076912;28;20198;-84
2022/12/22 14:36:06;;;;;;;18.50;3.57;;;;;;;-145.69;100.00;52567.16;5076763;28;20630;-84
2022/12/22 14:38:39;;;;;;;13.53;2.07;;;;;;;-145.69;100.00;52545.38;5077606;28;20244;-82
2022/12/22 14:43:59;;;;;;;11.43;2.03;;;;;;;-145.69;100.00;52543.41;5076584;28;20281;-81
2022/12/22 14:46:29;;;;;;;11.57;2.53;;;;;;;-145.69;100.00;52551.31;5076136;28;20195;-81
2022/12/22 14:48:58;;;;;;;10.10;2.20;;;;;;;-145.69;100.00;52547.38;5065904;28;20227;-81
2022/12/22 14:51:25;;;;;;;17.00;2.17;;;;;;;-145.69;100.00;52592.91;5064876;28;20226;-82
2022/12/22 14:53:54;;;;;;;14.47;2.23;;;;;;;-145.69;100.00;52592.91;5076013;28;20195;-83
2022/12/22 14:56:27;;;;;;;15.03;3.17;;;;;;;-145.69;100.00;52604.81;5076561;28;20860;-80
2022/12/22 14:59:11;;;;;;;15.40;2.23;;;;;;;-145.69;100.00;52569.16;5076459;28;20596;-84
2022/12/22 15:01:37;;;;;;;15.77;2.70;;;;;;;-145.69;100.00;52547.38;5075638;28;20202;-80
2022/12/22 15:04:07;;;;;;;13.03;2.53;;;;;;;-145.69;100.00;52565.19;5075815;28;20195;-81
2022/12/22 15:06:37;;;;;;;11.20;2.47;;;;;;;-145.69;100.00;52563.22;5075958;28;20195;-81